sensor_id;sensor_type;location;lat;lon;timestamp;P1;durP1;ratioP1;P2;durP2;ratioP2
3613;SDS011;1821;50.936;6.854;2023-05-14T00:00:00;13.57;;;9.80;;
3613;SDS011;1821;50.936;6.854;2023-05-14T00:00:42;14.40;;;11.35;;
3613;SDS011;1821;50.936;6.854;2023-05-14T00:01:24;12.57;;;10.30;;
3613;SDS011;1821;50.936;6.854;2023-05-14T00:02:06;11.70;;;9.95;;
3613;SDS011;1821;50.936;6.854;2023-05-14T00:02:48;13.02;;;10.52;;
3613;SDS011;1821;50.936;6.854;2023-05-14T00:03:30;11.52;;;10.32;;
3613;SDS011;1821;50.936;6.854;2023-05-14T00:04:12;11.57;;;10.43;;
3613;SDS011;1821;50.936;6.854;2023-05-14T00:04:54;11.05;;;9.95;;
3613;SDS011;1821;50.936;6.854;2023-05-14T00:05:36;10.70;;;9.70;;
3613;SDS011;1821;50.936;6.854;2023-05-14T00:06:18;11.43;;;10.20;;
3613;SDS011;1821;50.936;6.854;2023-05-14T00:07:02;13.43;;;10.40;;
3613;SDS011;1821;50.936;6.854;2023-05-14T00:07:44;12.38;;;10.30;;
3613;SDS011;1821;50.936;6.854;2023-05-14T00:08:26;11.13;;;10.02;;
3613;SDS011;1821;50.936;6.854;2023-05-14T00:09:09;12.70;;;10.30;;
3613;SDS011;1821;50.936;6.854;2023-05-14T00:09:51;11.32;;;10.13;;
3613;SDS011;1821;50.936;6.854;2023-05-14T00:10:33;12.25;;;11.05;;
3613;SDS011;1821;50.936;6.854;2023-05-14T00:11:15;11.38;;;10.27;;
3613;SDS011;1821;50.936;6.854;2023-05-14T00:11:57;10.27;;;9.27;;
3613;SDS011;1821;50.936;6.854;2023-05-14T00:12:39;10.73;;;9.73;;
3613;SDS011;1821;50.936;6.854;2023-05-14T00:13:21;11.07;;;9.98;;
3613;SDS011;1821;50.936;6.854;2023-05-14T00:14:03;10.10;;;9.10;;
3613;SDS011;1821;50.936;6.854;2023-05-14T00:14:45;11.48;;;10.30;;
3613;SDS011;1821;50.936;6.854;2023-05-14T00:15:27;11.50;;;10.30;;
3613;SDS011;1821;50.936;6.854;2023-05-14T00:16:09;11.50;;;10.40;;
3613;SDS011;1821;50.936;6.854;2023-05-14T00:16:51;11.35;;;10.35;;
3613;SDS011;1821;50.936;6.854;2023-05-14T00:17:33;12.27;;;10.85;;
3613;SDS011;1821;50.936;6.854;2023-05-14T00:18:17;11.48;;;10.13;;
3613;SDS011;1821;50.936;6.854;2023-05-14T00:18:59;10.75;;;9.75;;
3613;SDS011;1821;50.936;6.854;2023-05-14T00:19:41;12.10;;;9.52;;
3613;SDS011;1821;50.936;6.854;2023-05-14T00:20:23;10.65;;;9.65;;
3613;SDS011;1821;50.936;6.854;2023-05-14T00:21:05;10.55;;;9.55;;
3613;SDS011;1821;50.936;6.854;2023-05-14T00:21:47;10.80;;;9.80;;
3613;SDS011;1821;50.936;6.854;2023-05-14T00:22:29;11.43;;;10.32;;
3613;SDS011;1821;50.936;6.854;2023-05-14T00:23:11;10.88;;;9.77;;
3613;SDS011;1821;50.936;6.854;2023-05-14T00:23:53;12.20;;;10.90;;
3613;SDS011;1821;50.936;6.854;2023-05-14T00:24:35;11.43;;;10.32;;
3613;SDS011;1821;50.936;6.854;2023-05-14T00:25:17;11.60;;;10.45;;
3613;SDS011;1821;50.936;6.854;2023-05-14T00:25:59;11.27;;;10.18;;
3613;SDS011;1821;50.936;6.854;2023-05-14T00:26:41;11.93;;;10.73;;
3613;SDS011;1821;50.936;6.854;2023-05-14T00:27:23;11.70;;;10.48;;
3613;SDS011;1821;50.936;6.854;2023-05-14T00:28:05;11.65;;;10.45;;
3613;SDS011;1821;50.936;6.854;2023-05-14T00:28:47;12.73;;;11.13;;
3613;SDS011;1821;50.936;6.854;2023-05-14T00:29:29;13.10;;;11.50;;
3613;SDS011;1821;50.936;6.854;2023-05-14T00:30:11;14.77;;;10.80;;
3613;SDS011;1821;50.936;6.854;2023-05-14T00:30:53;12.20;;;10.90;;
3613;SDS011;1821;50.936;6.854;2023-05-14T00:31:36;13.15;;;11.32;;
3613;SDS011;1821;50.936;6.854;2023-05-14T00:32:18;12.00;;;10.80;;
3613;SDS011;1821;50.936;6.854;2023-05-14T00:33:00;12.70;;;11.40;;
3613;SDS011;1821;50.936;6.854;2023-05-14T00:33:44;13.77;;;11.77;;
3613;SDS011;1821;50.936;6.854;2023-05-14T00:34:26;13.43;;;11.80;;
3613;SDS011;1821;50.936;6.854;2023-05-14T00:35:08;11.77;;;10.57;;
3613;SDS011;1821;50.936;6.854;2023-05-14T00:35:50;12.57;;;11.38;;
3613;SDS011;1821;50.936;6.854;2023-05-14T00:36:32;12.60;;;11.32;;
3613;SDS011;1821;50.936;6.854;2023-05-14T00:37:14;13.23;;;11.85;;
3613;SDS011;1821;50.936;6.854;2023-05-14T00:37:56;12.95;;;11.55;;
3613;SDS011;1821;50.936;6.854;2023-05-14T00:38:38;12.23;;;11.02;;
3613;SDS011;1821;50.936;6.854;2023-05-14T00:39:22;12.15;;;10.95;;
3613;SDS011;1821;50.936;6.854;2023-05-14T00:40:04;11.60;;;10.50;;
3613;SDS011;1821;50.936;6.854;2023-05-14T00:40:47;13.05;;;11.75;;
3613;SDS011;1821;50.936;6.854;2023-05-14T00:41:34;12.27;;;11.07;;
3613;SDS011;1821;50.936;6.854;2023-05-14T00:42:18;11.70;;;10.60;;
3613;SDS011;1821;50.936;6.854;2023-05-14T00:43:02;12.90;;;10.90;;
3613;SDS011;1821;50.936;6.854;2023-05-14T00:43:44;11.88;;;10.68;;
3613;SDS011;1821;50.936;6.854;2023-05-14T00:44:26;12.77;;;11.57;;
3613;SDS011;1821;50.936;6.854;2023-05-14T00:45:10;12.00;;;10.70;;
3613;SDS011;1821;50.936;6.854;2023-05-14T00:45:52;12.98;;;11.00;;
3613;SDS011;1821;50.936;6.854;2023-05-14T00:46:35;17.20;;;11.30;;
3613;SDS011;1821;50.936;6.854;2023-05-14T00:47:18;14.68;;;11.60;;
3613;SDS011;1821;50.936;6.854;2023-05-14T00:48:00;11.88;;;10.77;;
3613;SDS011;1821;50.936;6.854;2023-05-14T00:48:42;11.90;;;10.70;;
3613;SDS011;1821;50.936;6.854;2023-05-14T00:49:27;11.43;;;9.98;;
3613;SDS011;1821;50.936;6.854;2023-05-14T00:50:09;15.23;;;10.93;;
3613;SDS011;1821;50.936;6.854;2023-05-14T00:50:52;13.90;;;11.20;;
3613;SDS011;1821;50.936;6.854;2023-05-14T00:51:34;12.52;;;11.23;;
3613;SDS011;1821;50.936;6.854;2023-05-14T00:52:16;13.02;;;11.50;;
3613;SDS011;1821;50.936;6.854;2023-05-14T00:52:58;13.00;;;10.93;;
3613;SDS011;1821;50.936;6.854;2023-05-14T00:53:44;13.55;;;10.90;;
3613;SDS011;1821;50.936;6.854;2023-05-14T00:54:26;12.02;;;10.00;;
3613;SDS011;1821;50.936;6.854;2023-05-14T00:55:09;10.88;;;9.88;;
3613;SDS011;1821;50.936;6.854;2023-05-14T00:55:56;12.40;;;11.10;;
3613;SDS011;1821;50.936;6.854;2023-05-14T00:56:39;11.80;;;10.60;;
3613;SDS011;1821;50.936;6.854;2023-05-14T00:57:21;13.40;;;12.10;;
3613;SDS011;1821;50.936;6.854;2023-05-14T00:58:06;12.45;;;11.20;;
3613;SDS011;1821;50.936;6.854;2023-05-14T00:58:52;12.52;;;11.23;;
3613;SDS011;1821;50.936;6.854;2023-05-14T00:59:34;12.77;;;10.77;;
3613;SDS011;1821;50.936;6.854;2023-05-14T01:00:16;12.73;;;11.43;;
3613;SDS011;1821;50.936;6.854;2023-05-14T01:00:58;11.70;;;10.50;;
3613;SDS011;1821;50.936;6.854;2023-05-14T01:01:40;11.52;;;10.40;;
3613;SDS011;1821;50.936;6.854;2023-05-14T01:02:23;12.10;;;10.70;;
3613;SDS011;1821;50.936;6.854;2023-05-14T01:03:05;13.40;;;12.10;;
3613;SDS011;1821;50.936;6.854;2023-05-14T01:03:48;12.57;;;11.27;;
3613;SDS011;1821;50.936;6.854;2023-05-14T01:04:30;13.15;;;11.85;;
3613;SDS011;1821;50.936;6.854;2023-05-14T01:05:12;13.70;;;12.30;;
3613;SDS011;1821;50.936;6.854;2023-05-14T01:06:00;13.65;;;12.27;;
3613;SDS011;1821;50.936;6.854;2023-05-14T01:08:21;12.68;;;11.57;;
3613;SDS011;1821;50.936;6.854;2023-05-14T01:10:41;12.20;;;11.00;;
3613;SDS011;1821;50.936;6.854;2023-05-14T01:11:43;13.23;;;11.80;;
3613;SDS011;1821;50.936;6.854;2023-05-14T01:14:06;14.65;;;12.68;;
3613;SDS011;1821;50.936;6.854;2023-05-14T01:15:53;13.60;;;12.20;;
3613;SDS011;1821;50.936;6.854;2023-05-14T01:16:39;13.80;;;12.23;;
3613;SDS011;1821;50.936;6.854;2023-05-14T01:17:25;12.40;;;11.20;;
3613;SDS011;1821;50.936;6.854;2023-05-14T01:18:10;12.63;;;11.32;;
3613;SDS011;1821;50.936;6.854;2023-05-14T01:18:53;12.45;;;11.25;;
3613;SDS011;1821;50.936;6.854;2023-05-14T01:19:39;13.25;;;11.93;;
3613;SDS011;1821;50.936;6.854;2023-05-14T01:20:25;13.82;;;12.43;;
3613;SDS011;1821;50.936;6.854;2023-05-14T01:21:23;12.82;;;11.40;;
3613;SDS011;1821;50.936;6.854;2023-05-14T01:22:14;13.45;;;12.05;;
3613;SDS011;1821;50.936;6.854;2023-05-14T01:22:56;13.35;;;12.05;;
3613;SDS011;1821;50.936;6.854;2023-05-14T01:23:38;13.93;;;12.43;;
3613;SDS011;1821;50.936;6.854;2023-05-14T01:24:20;13.88;;;12.48;;
3613;SDS011;1821;50.936;6.854;2023-05-14T01:25:03;13.55;;;12.30;;
3613;SDS011;1821;50.936;6.854;2023-05-14T01:25:46;13.25;;;11.95;;
3613;SDS011;1821;50.936;6.854;2023-05-14T01:26:28;13.13;;;11.93;;
3613;SDS011;1821;50.936;6.854;2023-05-14T01:27:16;13.35;;;12.15;;
3613;SDS011;1821;50.936;6.854;2023-05-14T01:28:07;13.40;;;11.93;;
3613;SDS011;1821;50.936;6.854;2023-05-14T01:29:01;13.00;;;11.65;;
3613;SDS011;1821;50.936;6.854;2023-05-14T01:31:11;13.52;;;12.13;;
3613;SDS011;1821;50.936;6.854;2023-05-14T01:31:58;14.32;;;12.75;;
3613;SDS011;1821;50.936;6.854;2023-05-14T01:32:43;13.77;;;12.35;;
3613;SDS011;1821;50.936;6.854;2023-05-14T01:33:29;12.75;;;11.45;;
3613;SDS011;1821;50.936;6.854;2023-05-14T01:34:13;13.40;;;12.10;;
3613;SDS011;1821;50.936;6.854;2023-05-14T01:34:59;13.32;;;11.93;;
3613;SDS011;1821;50.936;6.854;2023-05-14T01:35:42;15.25;;;11.50;;
3613;SDS011;1821;50.936;6.854;2023-05-14T01:36:27;12.80;;;11.50;;
3613;SDS011;1821;50.936;6.854;2023-05-14T01:37:11;12.95;;;11.55;;
3613;SDS011;1821;50.936;6.854;2023-05-14T01:37:57;13.43;;;12.02;;
3613;SDS011;1821;50.936;6.854;2023-05-14T01:38:43;12.85;;;11.65;;
3613;SDS011;1821;50.936;6.854;2023-05-14T01:39:27;13.10;;;11.80;;
3613;SDS011;1821;50.936;6.854;2023-05-14T01:40:12;12.23;;;11.10;;
3613;SDS011;1821;50.936;6.854;2023-05-14T01:40:54;12.10;;;10.80;;
3613;SDS011;1821;50.936;6.854;2023-05-14T01:41:37;12.50;;;11.10;;
3613;SDS011;1821;50.936;6.854;2023-05-14T01:42:20;13.00;;;11.80;;
3613;SDS011;1821;50.936;6.854;2023-05-14T01:43:04;13.07;;;11.77;;
3613;SDS011;1821;50.936;6.854;2023-05-14T01:43:46;13.88;;;11.48;;
3613;SDS011;1821;50.936;6.854;2023-05-14T01:44:29;14.20;;;11.05;;
3613;SDS011;1821;50.936;6.854;2023-05-14T01:45:11;12.05;;;10.82;;
3613;SDS011;1821;50.936;6.854;2023-05-14T01:45:53;11.10;;;10.00;;
3613;SDS011;1821;50.936;6.854;2023-05-14T01:46:35;11.90;;;10.73;;
3613;SDS011;1821;50.936;6.854;2023-05-14T01:47:18;14.43;;;11.55;;
3613;SDS011;1821;50.936;6.854;2023-05-14T01:48:00;12.63;;;11.32;;
3613;SDS011;1821;50.936;6.854;2023-05-14T01:48:42;12.63;;;11.43;;
3613;SDS011;1821;50.936;6.854;2023-05-14T01:49:24;12.40;;;11.20;;
3613;SDS011;1821;50.936;6.854;2023-05-14T01:50:06;12.45;;;11.25;;
3613;SDS011;1821;50.936;6.854;2023-05-14T01:50:48;12.38;;;11.00;;
3613;SDS011;1821;50.936;6.854;2023-05-14T01:51:30;12.18;;;10.77;;
3613;SDS011;1821;50.936;6.854;2023-05-14T01:52:12;12.73;;;11.52;;
3613;SDS011;1821;50.936;6.854;2023-05-14T01:52:54;11.95;;;10.85;;
3613;SDS011;1821;50.936;6.854;2023-05-14T01:53:37;11.77;;;10.65;;
3613;SDS011;1821;50.936;6.854;2023-05-14T01:54:19;12.90;;;11.60;;
3613;SDS011;1821;50.936;6.854;2023-05-14T01:55:01;12.15;;;11.00;;
3613;SDS011;1821;50.936;6.854;2023-05-14T01:55:42;12.50;;;11.20;;
3613;SDS011;1821;50.936;6.854;2023-05-14T01:56:24;12.25;;;10.95;;
3613;SDS011;1821;50.936;6.854;2023-05-14T01:57:07;12.25;;;10.95;;
3613;SDS011;1821;50.936;6.854;2023-05-14T01:57:49;12.32;;;11.05;;
3613;SDS011;1821;50.936;6.854;2023-05-14T01:58:31;12.85;;;11.32;;
3613;SDS011;1821;50.936;6.854;2023-05-14T01:59:13;12.70;;;11.40;;
3613;SDS011;1821;50.936;6.854;2023-05-14T01:59:56;12.20;;;10.25;;
3613;SDS011;1821;50.936;6.854;2023-05-14T02:00:38;11.75;;;10.50;;
3613;SDS011;1821;50.936;6.854;2023-05-14T02:01:20;12.60;;;11.40;;
3613;SDS011;1821;50.936;6.854;2023-05-14T02:02:04;12.20;;;11.00;;
3613;SDS011;1821;50.936;6.854;2023-05-14T02:02:46;12.38;;;11.18;;
3613;SDS011;1821;50.936;6.854;2023-05-14T02:03:28;12.13;;;10.93;;
3613;SDS011;1821;50.936;6.854;2023-05-14T02:04:11;11.90;;;10.80;;
3613;SDS011;1821;50.936;6.854;2023-05-14T02:04:53;11.40;;;10.30;;
3613;SDS011;1821;50.936;6.854;2023-05-14T02:05:35;11.60;;;10.32;;
3613;SDS011;1821;50.936;6.854;2023-05-14T02:06:17;12.10;;;10.88;;
3613;SDS011;1821;50.936;6.854;2023-05-14T02:06:59;11.90;;;10.68;;
3613;SDS011;1821;50.936;6.854;2023-05-14T02:07:41;11.73;;;10.63;;
3613;SDS011;1821;50.936;6.854;2023-05-14T02:08:23;12.07;;;10.98;;
3613;SDS011;1821;50.936;6.854;2023-05-14T02:09:05;12.40;;;11.10;;
3613;SDS011;1821;50.936;6.854;2023-05-14T02:09:47;12.40;;;10.25;;
3613;SDS011;1821;50.936;6.854;2023-05-14T02:10:29;12.10;;;10.70;;
3613;SDS011;1821;50.936;6.854;2023-05-14T02:11:13;12.23;;;10.60;;
3613;SDS011;1821;50.936;6.854;2023-05-14T02:11:56;13.05;;;10.50;;
3613;SDS011;1821;50.936;6.854;2023-05-14T02:12:38;11.82;;;10.05;;
3613;SDS011;1821;50.936;6.854;2023-05-14T02:13:20;11.55;;;10.38;;
3613;SDS011;1821;50.936;6.854;2023-05-14T02:14:04;11.32;;;10.23;;
3613;SDS011;1821;50.936;6.854;2023-05-14T02:14:46;11.05;;;9.88;;
3613;SDS011;1821;50.936;6.854;2023-05-14T02:15:28;11.27;;;10.23;;
3613;SDS011;1821;50.936;6.854;2023-05-14T02:16:10;10.70;;;9.60;;
3613;SDS011;1821;50.936;6.854;2023-05-14T02:16:54;10.95;;;9.60;;
3613;SDS011;1821;50.936;6.854;2023-05-14T02:17:39;11.73;;;10.10;;
3613;SDS011;1821;50.936;6.854;2023-05-14T02:18:21;11.40;;;10.20;;
3613;SDS011;1821;50.936;6.854;2023-05-14T02:19:03;11.18;;;10.07;;
3613;SDS011;1821;50.936;6.854;2023-05-14T02:19:45;10.80;;;9.52;;
3613;SDS011;1821;50.936;6.854;2023-05-14T02:20:28;11.23;;;9.70;;
3613;SDS011;1821;50.936;6.854;2023-05-14T02:21:10;13.45;;;9.73;;
3613;SDS011;1821;50.936;6.854;2023-05-14T02:21:52;10.80;;;9.70;;
3613;SDS011;1821;50.936;6.854;2023-05-14T02:22:33;11.23;;;10.07;;
3613;SDS011;1821;50.936;6.854;2023-05-14T02:23:16;11.30;;;10.10;;
3613;SDS011;1821;50.936;6.854;2023-05-14T02:23:59;11.50;;;10.40;;
3613;SDS011;1821;50.936;6.854;2023-05-14T02:24:41;11.35;;;10.15;;
3613;SDS011;1821;50.936;6.854;2023-05-14T02:25:23;10.75;;;9.68;;
3613;SDS011;1821;50.936;6.854;2023-05-14T02:26:05;10.25;;;9.25;;
3613;SDS011;1821;50.936;6.854;2023-05-14T02:26:52;11.00;;;9.90;;
3613;SDS011;1821;50.936;6.854;2023-05-14T02:27:34;11.95;;;10.77;;
3613;SDS011;1821;50.936;6.854;2023-05-14T02:28:16;11.75;;;10.55;;
3613;SDS011;1821;50.936;6.854;2023-05-14T02:28:58;11.90;;;10.60;;
3613;SDS011;1821;50.936;6.854;2023-05-14T02:29:40;11.48;;;10.27;;
3613;SDS011;1821;50.936;6.854;2023-05-14T02:30:24;11.88;;;10.10;;
3613;SDS011;1821;50.936;6.854;2023-05-14T02:31:06;12.10;;;9.98;;
3613;SDS011;1821;50.936;6.854;2023-05-14T02:31:48;11.77;;;10.57;;
3613;SDS011;1821;50.936;6.854;2023-05-14T02:32:30;13.13;;;11.10;;
3613;SDS011;1821;50.936;6.854;2023-05-14T02:33:12;11.15;;;10.05;;
3613;SDS011;1821;50.936;6.854;2023-05-14T02:33:54;12.00;;;9.80;;
3613;SDS011;1821;50.936;6.854;2023-05-14T02:34:36;11.63;;;10.18;;
3613;SDS011;1821;50.936;6.854;2023-05-14T02:35:18;10.88;;;9.82;;
3613;SDS011;1821;50.936;6.854;2023-05-14T02:36:00;10.73;;;9.68;;
3613;SDS011;1821;50.936;6.854;2023-05-14T02:36:42;12.27;;;9.70;;
3613;SDS011;1821;50.936;6.854;2023-05-14T02:37:24;12.88;;;10.00;;
3613;SDS011;1821;50.936;6.854;2023-05-14T02:38:06;11.80;;;10.60;;
3613;SDS011;1821;50.936;6.854;2023-05-14T02:38:48;12.23;;;9.95;;
3613;SDS011;1821;50.936;6.854;2023-05-14T02:39:30;10.60;;;9.50;;
3613;SDS011;1821;50.936;6.854;2023-05-14T02:40:14;10.45;;;9.35;;
3613;SDS011;1821;50.936;6.854;2023-05-14T02:40:56;11.40;;;10.30;;
3613;SDS011;1821;50.936;6.854;2023-05-14T02:41:38;10.70;;;9.70;;
3613;SDS011;1821;50.936;6.854;2023-05-14T02:42:20;11.73;;;10.38;;
3613;SDS011;1821;50.936;6.854;2023-05-14T02:43:05;11.30;;;10.20;;
3613;SDS011;1821;50.936;6.854;2023-05-14T02:43:49;11.15;;;10.07;;
3613;SDS011;1821;50.936;6.854;2023-05-14T02:44:31;12.77;;;10.77;;
3613;SDS011;1821;50.936;6.854;2023-05-14T02:45:13;11.80;;;10.32;;
3613;SDS011;1821;50.936;6.854;2023-05-14T02:45:55;12.38;;;11.18;;
3613;SDS011;1821;50.936;6.854;2023-05-14T02:46:38;12.52;;;11.30;;
3613;SDS011;1821;50.936;6.854;2023-05-14T02:47:20;13.02;;;10.75;;
3613;SDS011;1821;50.936;6.854;2023-05-14T02:48:03;13.10;;;11.00;;
3613;SDS011;1821;50.936;6.854;2023-05-14T02:48:45;12.18;;;10.98;;
3613;SDS011;1821;50.936;6.854;2023-05-14T02:49:29;11.65;;;10.48;;
3613;SDS011;1821;50.936;6.854;2023-05-14T02:50:11;11.10;;;10.00;;
3613;SDS011;1821;50.936;6.854;2023-05-14T02:50:53;11.73;;;10.48;;
3613;SDS011;1821;50.936;6.854;2023-05-14T02:51:35;11.40;;;10.25;;
3613;SDS011;1821;50.936;6.854;2023-05-14T02:52:19;12.70;;;10.30;;
3613;SDS011;1821;50.936;6.854;2023-05-14T02:53:01;11.85;;;10.23;;
3613;SDS011;1821;50.936;6.854;2023-05-14T02:53:43;11.63;;;10.15;;
3613;SDS011;1821;50.936;6.854;2023-05-14T02:54:25;12.35;;;10.80;;
3613;SDS011;1821;50.936;6.854;2023-05-14T02:55:09;11.60;;;10.50;;
3613;SDS011;1821;50.936;6.854;2023-05-14T02:55:54;11.63;;;10.52;;
3613;SDS011;1821;50.936;6.854;2023-05-14T02:56:37;11.60;;;10.50;;
3613;SDS011;1821;50.936;6.854;2023-05-14T02:57:19;12.30;;;11.10;;
3613;SDS011;1821;50.936;6.854;2023-05-14T02:58:01;12.40;;;10.65;;
3613;SDS011;1821;50.936;6.854;2023-05-14T02:58:43;11.90;;;10.60;;
3613;SDS011;1821;50.936;6.854;2023-05-14T02:59:25;12.45;;;11.30;;
3613;SDS011;1821;50.936;6.854;2023-05-14T03:00:09;11.93;;;10.68;;
3613;SDS011;1821;50.936;6.854;2023-05-14T03:00:54;12.10;;;10.05;;
3613;SDS011;1821;50.936;6.854;2023-05-14T03:01:37;11.70;;;10.60;;
3613;SDS011;1821;50.936;6.854;2023-05-14T03:02:19;12.52;;;11.23;;
3613;SDS011;1821;50.936;6.854;2023-05-14T03:03:02;14.60;;;11.18;;
3613;SDS011;1821;50.936;6.854;2023-05-14T03:03:44;12.75;;;11.45;;
3613;SDS011;1821;50.936;6.854;2023-05-14T03:04:26;11.55;;;10.45;;
3613;SDS011;1821;50.936;6.854;2023-05-14T03:05:08;11.85;;;10.50;;
3613;SDS011;1821;50.936;6.854;2023-05-14T03:05:50;12.10;;;10.40;;
3613;SDS011;1821;50.936;6.854;2023-05-14T03:06:32;11.20;;;10.10;;
3613;SDS011;1821;50.936;6.854;2023-05-14T03:07:14;11.77;;;10.68;;
3613;SDS011;1821;50.936;6.854;2023-05-14T03:07:56;11.52;;;10.43;;
3613;SDS011;1821;50.936;6.854;2023-05-14T03:08:38;11.27;;;10.10;;
3613;SDS011;1821;50.936;6.854;2023-05-14T03:09:20;11.90;;;10.70;;
3613;SDS011;1821;50.936;6.854;2023-05-14T03:10:05;11.90;;;10.80;;
3613;SDS011;1821;50.936;6.854;2023-05-14T03:10:47;13.98;;;11.50;;
3613;SDS011;1821;50.936;6.854;2023-05-14T03:11:29;12.25;;;11.05;;
3613;SDS011;1821;50.936;6.854;2023-05-14T03:12:11;12.02;;;10.93;;
3613;SDS011;1821;50.936;6.854;2023-05-14T03:12:54;13.00;;;11.63;;
3613;SDS011;1821;50.936;6.854;2023-05-14T03:13:36;12.10;;;10.90;;
3613;SDS011;1821;50.936;6.854;2023-05-14T03:14:18;11.45;;;10.35;;
3613;SDS011;1821;50.936;6.854;2023-05-14T03:15:00;12.17;;;10.47;;
3613;SDS011;1821;50.936;6.854;2023-05-14T03:15:42;11.48;;;10.25;;
3613;SDS011;1821;50.936;6.854;2023-05-14T03:16:25;13.10;;;11.10;;
3613;SDS011;1821;50.936;6.854;2023-05-14T03:17:09;11.77;;;10.68;;
3613;SDS011;1821;50.936;6.854;2023-05-14T03:17:52;11.50;;;10.40;;
3613;SDS011;1821;50.936;6.854;2023-05-14T03:18:34;12.40;;;11.20;;
3613;SDS011;1821;50.936;6.854;2023-05-14T03:19:17;12.73;;;11.23;;
3613;SDS011;1821;50.936;6.854;2023-05-14T03:19:59;13.25;;;11.85;;
3613;SDS011;1821;50.936;6.854;2023-05-14T03:20:41;13.73;;;11.60;;
3613;SDS011;1821;50.936;6.854;2023-05-14T03:21:22;14.20;;;11.80;;
3613;SDS011;1821;50.936;6.854;2023-05-14T03:22:07;13.85;;;12.35;;
3613;SDS011;1821;50.936;6.854;2023-05-14T03:22:49;13.05;;;11.73;;
3613;SDS011;1821;50.936;6.854;2023-05-14T03:23:31;13.40;;;11.85;;
3613;SDS011;1821;50.936;6.854;2023-05-14T03:24:17;13.98;;;12.55;;
3613;SDS011;1821;50.936;6.854;2023-05-14T03:24:59;13.57;;;12.20;;
3613;SDS011;1821;50.936;6.854;2023-05-14T03:25:40;12.57;;;11.45;;
3613;SDS011;1821;50.936;6.854;2023-05-14T03:26:22;13.93;;;12.10;;
3613;SDS011;1821;50.936;6.854;2023-05-14T03:27:04;13.85;;;11.45;;
3613;SDS011;1821;50.936;6.854;2023-05-14T03:27:47;13.52;;;12.13;;
3613;SDS011;1821;50.936;6.854;2023-05-14T03:28:29;13.70;;;12.27;;
3613;SDS011;1821;50.936;6.854;2023-05-14T03:29:11;13.07;;;11.77;;
3613;SDS011;1821;50.936;6.854;2023-05-14T03:29:53;12.73;;;11.48;;
3613;SDS011;1821;50.936;6.854;2023-05-14T03:30:35;13.52;;;11.27;;
3613;SDS011;1821;50.936;6.854;2023-05-14T03:31:17;13.38;;;11.98;;
3613;SDS011;1821;50.936;6.854;2023-05-14T03:31:59;13.40;;;12.00;;
3613;SDS011;1821;50.936;6.854;2023-05-14T03:32:41;13.85;;;11.85;;
3613;SDS011;1821;50.936;6.854;2023-05-14T03:33:23;12.80;;;11.50;;
3613;SDS011;1821;50.936;6.854;2023-05-14T03:34:05;12.85;;;11.65;;
3613;SDS011;1821;50.936;6.854;2023-05-14T03:34:47;13.23;;;11.93;;
3613;SDS011;1821;50.936;6.854;2023-05-14T03:35:29;12.75;;;11.45;;
3613;SDS011;1821;50.936;6.854;2023-05-14T03:36:11;12.90;;;11.70;;
3613;SDS011;1821;50.936;6.854;2023-05-14T03:36:54;13.20;;;11.80;;
3613;SDS011;1821;50.936;6.854;2023-05-14T03:37:35;13.38;;;11.98;;
3613;SDS011;1821;50.936;6.854;2023-05-14T03:38:17;12.27;;;11.07;;
3613;SDS011;1821;50.936;6.854;2023-05-14T03:38:59;12.60;;;11.40;;
3613;SDS011;1821;50.936;6.854;2023-05-14T03:39:41;13.43;;;12.02;;
3613;SDS011;1821;50.936;6.854;2023-05-14T03:40:24;13.07;;;11.57;;
3613;SDS011;1821;50.936;6.854;2023-05-14T03:41:06;12.35;;;10.60;;
3613;SDS011;1821;50.936;6.854;2023-05-14T03:41:48;12.70;;;11.40;;
3613;SDS011;1821;50.936;6.854;2023-05-14T03:42:30;13.23;;;11.80;;
3613;SDS011;1821;50.936;6.854;2023-05-14T03:43:14;13.05;;;11.65;;
3613;SDS011;1821;50.936;6.854;2023-05-14T03:43:56;11.70;;;10.55;;
3613;SDS011;1821;50.936;6.854;2023-05-14T03:44:38;13.20;;;11.80;;
3613;SDS011;1821;50.936;6.854;2023-05-14T03:45:20;12.98;;;11.60;;
3613;SDS011;1821;50.936;6.854;2023-05-14T03:46:02;13.32;;;11.00;;
3613;SDS011;1821;50.936;6.854;2023-05-14T03:46:44;13.52;;;12.15;;
3613;SDS011;1821;50.936;6.854;2023-05-14T03:47:26;12.70;;;11.40;;
3613;SDS011;1821;50.936;6.854;2023-05-14T03:48:09;13.10;;;11.80;;
3613;SDS011;1821;50.936;6.854;2023-05-14T03:48:51;12.60;;;11.40;;
3613;SDS011;1821;50.936;6.854;2023-05-14T03:49:33;12.32;;;11.05;;
3613;SDS011;1821;50.936;6.854;2023-05-14T03:50:15;11.90;;;10.70;;
3613;SDS011;1821;50.936;6.854;2023-05-14T03:50:59;12.52;;;11.32;;
3613;SDS011;1821;50.936;6.854;2023-05-14T03:51:41;12.23;;;11.05;;
3613;SDS011;1821;50.936;6.854;2023-05-14T03:52:23;11.95;;;10.75;;
3613;SDS011;1821;50.936;6.854;2023-05-14T03:53:05;12.88;;;11.57;;
3613;SDS011;1821;50.936;6.854;2023-05-14T03:53:47;12.80;;;11.50;;
3613;SDS011;1821;50.936;6.854;2023-05-14T03:54:29;12.50;;;11.18;;
3613;SDS011;1821;50.936;6.854;2023-05-14T03:55:10;12.32;;;11.10;;
3613;SDS011;1821;50.936;6.854;2023-05-14T03:55:52;12.98;;;11.60;;
3613;SDS011;1821;50.936;6.854;2023-05-14T03:56:34;12.80;;;11.60;;
3613;SDS011;1821;50.936;6.854;2023-05-14T03:57:16;11.90;;;10.80;;
3613;SDS011;1821;50.936;6.854;2023-05-14T03:57:58;12.82;;;11.52;;
3613;SDS011;1821;50.936;6.854;2023-05-14T03:58:40;12.73;;;11.48;;
3613;SDS011;1821;50.936;6.854;2023-05-14T03:59:22;11.82;;;10.55;;
3613;SDS011;1821;50.936;6.854;2023-05-14T04:00:05;13.40;;;11.50;;
3613;SDS011;1821;50.936;6.854;2023-05-14T04:00:49;12.73;;;11.52;;
3613;SDS011;1821;50.936;6.854;2023-05-14T04:01:31;12.20;;;11.10;;
3613;SDS011;1821;50.936;6.854;2023-05-14T04:02:13;12.20;;;10.88;;
3613;SDS011;1821;50.936;6.854;2023-05-14T04:02:55;12.68;;;11.38;;
3613;SDS011;1821;50.936;6.854;2023-05-14T04:03:40;12.27;;;11.07;;
3613;SDS011;1821;50.936;6.854;2023-05-14T04:04:24;11.63;;;10.50;;
3613;SDS011;1821;50.936;6.854;2023-05-14T04:05:07;12.10;;;10.80;;
3613;SDS011;1821;50.936;6.854;2023-05-14T04:05:49;12.70;;;11.25;;
3613;SDS011;1821;50.936;6.854;2023-05-14T04:06:31;12.48;;;11.18;;
3613;SDS011;1821;50.936;6.854;2023-05-14T04:07:14;11.93;;;10.73;;
3613;SDS011;1821;50.936;6.854;2023-05-14T04:07:55;12.63;;;10.88;;
3613;SDS011;1821;50.936;6.854;2023-05-14T04:08:38;12.70;;;11.30;;
3613;SDS011;1821;50.936;6.854;2023-05-14T04:09:20;12.80;;;11.60;;
3613;SDS011;1821;50.936;6.854;2023-05-14T04:10:02;13.23;;;11.82;;
3613;SDS011;1821;50.936;6.854;2023-05-14T04:10:45;13.63;;;11.52;;
3613;SDS011;1821;50.936;6.854;2023-05-14T04:11:27;12.70;;;11.40;;
3613;SDS011;1821;50.936;6.854;2023-05-14T04:12:09;12.48;;;11.13;;
3613;SDS011;1821;50.936;6.854;2023-05-14T04:12:51;13.80;;;12.23;;
3613;SDS011;1821;50.936;6.854;2023-05-14T04:13:32;13.30;;;11.98;;
3613;SDS011;1821;50.936;6.854;2023-05-14T04:14:14;12.23;;;11.02;;
3613;SDS011;1821;50.936;6.854;2023-05-14T04:14:57;13.52;;;10.73;;
3613;SDS011;1821;50.936;6.854;2023-05-14T04:15:39;13.75;;;11.88;;
3613;SDS011;1821;50.936;6.854;2023-05-14T04:16:21;13.25;;;11.63;;
3613;SDS011;1821;50.936;6.854;2023-05-14T04:17:04;12.60;;;10.93;;
3613;SDS011;1821;50.936;6.854;2023-05-14T04:17:45;12.88;;;11.63;;
3613;SDS011;1821;50.936;6.854;2023-05-14T04:18:29;13.35;;;12.05;;
3613;SDS011;1821;50.936;6.854;2023-05-14T04:19:15;13.43;;;12.13;;
3613;SDS011;1821;50.936;6.854;2023-05-14T04:19:57;12.85;;;11.65;;
3613;SDS011;1821;50.936;6.854;2023-05-14T04:20:39;13.00;;;11.45;;
3613;SDS011;1821;50.936;6.854;2023-05-14T04:21:21;13.77;;;11.00;;
3613;SDS011;1821;50.936;6.854;2023-05-14T04:22:03;14.82;;;11.52;;
3613;SDS011;1821;50.936;6.854;2023-05-14T04:22:47;13.73;;;11.18;;
3613;SDS011;1821;50.936;6.854;2023-05-14T04:23:29;13.05;;;11.65;;
3613;SDS011;1821;50.936;6.854;2023-05-14T04:24:12;13.27;;;11.88;;
3613;SDS011;1821;50.936;6.854;2023-05-14T04:24:54;16.30;;;12.15;;